sensor_id;sensor_type;location;lat;lon;timestamp;pressure;altitude;pressure_sealevel;temperature;humidity
81387;BME280;70842;50.744;7.114;2023-11-21T00:00:54;100458.09;;;12.35;70.85
81387;BME280;70842;50.744;7.114;2023-11-21T00:03:20;100462.00;;;12.50;70.34
81387;BME280;70842;50.744;7.114;2023-11-21T00:05:49;100456.53;;;12.51;69.90
81387;BME280;70842;50.744;7.114;2023-11-21T00:08:16;100475.44;;;12.39;71.00
81387;BME280;70842;50.744;7.114;2023-11-21T00:10:42;100470.41;;;12.36;71.18
81387;BME280;70842;50.744;7.114;2023-11-21T00:13:09;100472.38;;;12.15;71.50
81387;BME280;70842;50.744;7.114;2023-11-21T00:15:38;100461.44;;;11.99;72.19
81387;BME280;70842;50.744;7.114;2023-11-21T00:18:05;100464.66;;;12.31;71.10
81387;BME280;70842;50.744;7.114;2023-11-21T00:20:31;100465.09;;;12.55;70.26
81387;BME280;70842;50.744;7.114;2023-11-21T00:22:58;100464.81;;;12.29;70.79
81387;BME280;70842;50.744;7.114;2023-11-21T00:25:25;100477.81;;;12.42;70.55
81387;BME280;70842;50.744;7.114;2023-11-21T00:27:52;100462.28;;;12.09;71.85
81387;BME280;70842;50.744;7.114;2023-11-21T00:30:18;100472.47;;;12.13;71.69
81387;BME280;70842;50.744;7.114;2023-11-21T00:32:46;100477.25;;;12.10;72.23
81387;BME280;70842;50.744;7.114;2023-11-21T00:35:12;100482.84;;;12.26;71.53
81387;BME280;70842;50.744;7.114;2023-11-21T00:37:39;100476.41;;;12.19;71.25
81387;BME280;70842;50.744;7.114;2023-11-21T00:40:06;100484.66;;;12.06;72.14
81387;BME280;70842;50.744;7.114;2023-11-21T00:42:32;100485.50;;;12.16;72.21
81387;BME280;70842;50.744;7.114;2023-11-21T00:45:00;100489.97;;;12.16;72.04
81387;BME280;70842;50.744;7.114;2023-11-21T00:47:26;100495.84;;;12.29;71.46
81387;BME280;70842;50.744;7.114;2023-11-21T00:49:53;100497.69;;;12.38;71.56
81387;BME280;70842;50.744;7.114;2023-11-21T00:52:19;100498.38;;;12.40;71.41
81387;BME280;70842;50.744;7.114;2023-11-21T00:54:46;100495.59;;;12.32;71.61
81387;BME280;70842;50.744;7.114;2023-11-21T00:57:14;100507.19;;;12.21;71.95
81387;BME280;70842;50.744;7.114;2023-11-21T00:59:40;100506.63;;;12.27;71.64
81387;BME280;70842;50.744;7.114;2023-11-21T01:02:07;100500.31;;;12.19;71.79
81387;BME280;70842;50.744;7.114;2023-11-21T01:04:36;100504.38;;;12.32;71.65
81387;BME280;70842;50.744;7.114;2023-11-21T01:07:03;100499.31;;;12.01;72.03
81387;BME280;70842;50.744;7.114;2023-11-21T01:09:29;100490.66;;;12.08;72.13
81387;BME280;70842;50.744;7.114;2023-11-21T01:11:56;100520.38;;;11.83;72.94
81387;BME280;70842;50.744;7.114;2023-11-21T01:14:23;100515.09;;;11.93;72.81
81387;BME280;70842;50.744;7.114;2023-11-21T01:16:49;100517.94;;;12.29;71.41
81387;BME280;70842;50.744;7.114;2023-11-21T01:19:16;100530.69;;;12.35;71.19
81387;BME280;70842;50.744;7.114;2023-11-21T01:21:43;100537.25;;;12.41;70.85
81387;BME280;70842;50.744;7.114;2023-11-21T01:24:09;100532.50;;;12.54;70.38
81387;BME280;70842;50.744;7.114;2023-11-21T01:26:36;100515.41;;;12.28;70.89
81387;BME280;70842;50.744;7.114;2023-11-21T01:29:02;100530.25;;;12.40;70.88
81387;BME280;70842;50.744;7.114;2023-11-21T01:31:29;100532.66;;;12.52;70.42
81387;BME280;70842;50.744;7.114;2023-11-21T01:33:56;100539.22;;;12.29;71.27
81387;BME280;70842;50.744;7.114;2023-11-21T01:36:29;100543.53;;;12.49;70.43
81387;BME280;70842;50.744;7.114;2023-11-21T01:38:56;100531.81;;;12.42;70.31
81387;BME280;70842;50.744;7.114;2023-11-21T01:41:26;100528.53;;;12.01;71.61
81387;BME280;70842;50.744;7.114;2023-11-21T01:43:53;100535.22;;;12.05;71.54
81387;BME280;70842;50.744;7.114;2023-11-21T01:46:20;100539.03;;;12.12;71.72
81387;BME280;70842;50.744;7.114;2023-11-21T01:48:48;100546.56;;;12.07;71.76
81387;BME280;70842;50.744;7.114;2023-11-21T01:51:16;100550.91;;;12.17;71.61
81387;BME280;70842;50.744;7.114;2023-11-21T01:53:42;100557.25;;;11.77;72.57
81387;BME280;70842;50.744;7.114;2023-11-21T01:56:10;100539.59;;;11.66;73.19
81387;BME280;70842;50.744;7.114;2023-11-21T01:58:37;100548.31;;;11.77;72.41
81387;BME280;70842;50.744;7.114;2023-11-21T02:01:03;100543.13;;;11.76;72.36
81387;BME280;70842;50.744;7.114;2023-11-21T02:03:30;100550.88;;;11.98;72.14
81387;BME280;70842;50.744;7.114;2023-11-21T02:05:57;100539.59;;;12.06;71.10
81387;BME280;70842;50.744;7.114;2023-11-21T02:08:24;100561.13;;;12.12;71.16
81387;BME280;70842;50.744;7.114;2023-11-21T02:10:51;100552.56;;;12.09;71.05
81387;BME280;70842;50.744;7.114;2023-11-21T02:13:17;100552.00;;;12.05;71.32
81387;BME280;70842;50.744;7.114;2023-11-21T02:15:44;100575.78;;;12.07;71.40
81387;BME280;70842;50.744;7.114;2023-11-21T02:18:10;100572.84;;;12.00;71.53
81387;BME280;70842;50.744;7.114;2023-11-21T02:20:37;100575.06;;;11.95;71.82
81387;BME280;70842;50.744;7.114;2023-11-21T02:23:05;100572.41;;;11.95;71.64
81387;BME280;70842;50.744;7.114;2023-11-21T02:25:32;100570.00;;;11.92;71.78
81387;BME280;70842;50.744;7.114;2023-11-21T02:28:01;100588.09;;;12.08;71.19
81387;BME280;70842;50.744;7.114;2023-11-21T02:30:28;100587.94;;;12.00;71.58
81387;BME280;70842;50.744;7.114;2023-11-21T02:32:56;100577.72;;;12.05;71.29
81387;BME280;70842;50.744;7.114;2023-11-21T02:35:24;100586.59;;;12.15;70.99
81387;BME280;70842;50.744;7.114;2023-11-21T02:37:52;100590.44;;;12.01;71.24
81387;BME280;70842;50.744;7.114;2023-11-21T02:40:19;100578.63;;;12.15;70.55
81387;BME280;70842;50.744;7.114;2023-11-21T02:42:47;100597.31;;;12.13;71.00
81387;BME280;70842;50.744;7.114;2023-11-21T02:45:14;100595.81;;;12.20;70.55
81387;BME280;70842;50.744;7.114;2023-11-21T02:47:43;100607.28;;;12.21;70.23
81387;BME280;70842;50.744;7.114;2023-11-21T02:50:10;100597.72;;;12.09;70.72
81387;BME280;70842;50.744;7.114;2023-11-21T02:52:37;100598.72;;;12.17;70.82
81387;BME280;70842;50.744;7.114;2023-11-21T02:55:04;100600.47;;;12.47;69.80
81387;BME280;70842;50.744;7.114;2023-11-21T02:57:31;100592.78;;;12.53;69.41
81387;BME280;70842;50.744;7.114;2023-11-21T02:59:57;100594.59;;;12.34;69.94
81387;BME280;70842;50.744;7.114;2023-11-21T03:02:23;100605.75;;;12.28;70.41
81387;BME280;70842;50.744;7.114;2023-11-21T03:04:50;100598.81;;;11.97;71.17
81387;BME280;70842;50.744;7.114;2023-11-21T03:07:17;100598.16;;;12.04;71.10
81387;BME280;70842;50.744;7.114;2023-11-21T03:09:45;100599.25;;;12.02;71.13
81387;BME280;70842;50.744;7.114;2023-11-21T03:12:12;100601.53;;;12.16;70.60
81387;BME280;70842;50.744;7.114;2023-11-21T03:14:39;100603.47;;;11.74;71.83
81387;BME280;70842;50.744;7.114;2023-11-21T03:17:06;100600.84;;;11.84;71.61
81387;BME280;70842;50.744;7.114;2023-11-21T03:19:32;100606.06;;;11.85;71.55
81387;BME280;70842;50.744;7.114;2023-11-21T03:21:59;100604.59;;;11.71;71.77
81387;BME280;70842;50.744;7.114;2023-11-21T03:24:25;100609.75;;;12.03;70.99
81387;BME280;70842;50.744;7.114;2023-11-21T03:26:52;100611.03;;;12.18;70.34
81387;BME280;70842;50.744;7.114;2023-11-21T03:29:19;100621.50;;;12.10;70.60
81387;BME280;70842;50.744;7.114;2023-11-21T03:31:45;100626.91;;;11.99;70.68
81387;BME280;70842;50.744;7.114;2023-11-21T03:34:23;100632.53;;;12.06;70.47
81387;BME280;70842;50.744;7.114;2023-11-21T03:36:50;100636.16;;;12.05;71.02
81387;BME280;70842;50.744;7.114;2023-11-21T03:39:16;100645.81;;;12.06;70.81
81387;BME280;70842;50.744;7.114;2023-11-21T03:41:43;100642.06;;;12.18;70.34
81387;BME280;70842;50.744;7.114;2023-11-21T03:44:09;100652.75;;;12.37;69.75
81387;BME280;70842;50.744;7.114;2023-11-21T03:46:36;100652.00;;;12.16;70.80
81387;BME280;70842;50.744;7.114;2023-11-21T03:49:03;100635.97;;;12.27;69.88
81387;BME280;70842;50.744;7.114;2023-11-21T03:51:29;100658.06;;;12.27;70.40
81387;BME280;70842;50.744;7.114;2023-11-21T03:53:56;100660.25;;;12.13;70.65
81387;BME280;70842;50.744;7.114;2023-11-21T03:56:22;100664.25;;;11.56;72.39
81387;BME280;70842;50.744;7.114;2023-11-21T03:58:49;100660.47;;;11.70;72.44
81387;BME280;70842;50.744;7.114;2023-11-21T04:01:22;100666.19;;;11.75;71.99
81387;BME280;70842;50.744;7.114;2023-11-21T04:03:49;100660.31;;;11.71;71.69
81387;BME280;70842;50.744;7.114;2023-11-21T04:06:17;100665.63;;;11.71;71.81
81387;BME280;70842;50.744;7.114;2023-11-21T04:08:44;100672.19;;;11.98;70.94
81387;BME280;70842;50.744;7.114;2023-11-21T04:11:11;100675.00;;;11.75;71.88
81387;BME280;70842;50.744;7.114;2023-11-21T04:13:39;100677.59;;;11.66;72.04
81387;BME280;70842;50.744;7.114;2023-11-21T04:16:07;100685.34;;;11.99;71.10
81387;BME280;70842;50.744;7.114;2023-11-21T04:18:37;100679.63;;;11.73;71.99
81387;BME280;70842;50.744;7.114;2023-11-21T04:21:07;100684.06;;;11.94;71.35
81387;BME280;70842;50.744;7.114;2023-11-21T04:23:35;100686.72;;;11.94;71.49
81387;BME280;70842;50.744;7.114;2023-11-21T04:26:01;100687.47;;;12.05;70.84
81387;BME280;70842;50.744;7.114;2023-11-21T04:28:28;100695.09;;;11.89;71.59
81387;BME280;70842;50.744;7.114;2023-11-21T04:30:55;100704.38;;;11.63;72.34
81387;BME280;70842;50.744;7.114;2023-11-21T04:33:21;100703.09;;;11.57;72.73
81387;BME280;70842;50.744;7.114;2023-11-21T04:35:48;100706.53;;;11.48;72.92
81387;BME280;70842;50.744;7.114;2023-11-21T04:38:15;100710.69;;;11.62;72.79
81387;BME280;70842;50.744;7.114;2023-11-21T04:40:41;100701.50;;;11.87;71.57
81387;BME280;70842;50.744;7.114;2023-11-21T04:43:08;100707.16;;;12.03;71.63
81387;BME280;70842;50.744;7.114;2023-11-21T04:45:34;100704.41;;;12.14;71.29
81387;BME280;70842;50.744;7.114;2023-11-21T04:48:01;100700.50;;;12.18;70.99
81387;BME280;70842;50.744;7.114;2023-11-21T04:50:27;100699.72;;;12.27;70.77
81387;BME280;70842;50.744;7.114;2023-11-21T04:52:54;100696.00;;;12.09;71.49
81387;BME280;70842;50.744;7.114;2023-11-21T04:55:20;100706.59;;;12.29;70.44
81387;BME280;70842;50.744;7.114;2023-11-21T04:57:47;100709.66;;;12.34;69.90
81387;BME280;70842;50.744;7.114;2023-11-21T05:00:13;100712.22;;;12.06;71.17
81387;BME280;70842;50.744;7.114;2023-11-21T05:02:40;100708.69;;;12.05;71.16
81387;BME280;70842;50.744;7.114;2023-11-21T05:05:08;100721.50;;;12.21;70.83
81387;BME280;70842;50.744;7.114;2023-11-21T05:07:36;100714.09;;;11.94;70.91
81387;BME280;70842;50.744;7.114;2023-11-21T05:10:05;100720.09;;;11.96;71.35
81387;BME280;70842;50.744;7.114;2023-11-21T05:12:38;100717.31;;;12.28;70.33
81387;BME280;70842;50.744;7.114;2023-11-21T05:15:05;100716.41;;;12.08;71.19
81387;BME280;70842;50.744;7.114;2023-11-21T05:17:38;100719.00;;;11.99;71.31
81387;BME280;70842;50.744;7.114;2023-11-21T05:20:12;100719.38;;;12.15;70.61
81387;BME280;70842;50.744;7.114;2023-11-21T05:22:40;100721.19;;;12.14;70.63
81387;BME280;70842;50.744;7.114;2023-11-21T05:25:08;100728.06;;;11.96;71.28
81387;BME280;70842;50.744;7.114;2023-11-21T05:27:35;100728.84;;;12.08;70.92
81387;BME280;70842;50.744;7.114;2023-11-21T05:30:03;100735.31;;;12.15;70.80
81387;BME280;70842;50.744;7.114;2023-11-21T05:32:34;100729.81;;;12.07;71.13
81387;BME280;70842;50.744;7.114;2023-11-21T05:35:01;100748.50;;;12.26;70.46
81387;BME280;70842;50.744;7.114;2023-11-21T05:37:27;100741.44;;;12.36;69.82
81387;BME280;70842;50.744;7.114;2023-11-21T05:39:54;100748.06;;;12.21;70.80
81387;BME280;70842;50.744;7.114;2023-11-21T05:42:23;100750.88;;;11.99;71.34
81387;BME280;70842;50.744;7.114;2023-11-21T05:44:49;100753.69;;;11.97;70.88
81387;BME280;70842;50.744;7.114;2023-11-21T05:47:16;100758.53;;;12.13;70.65
81387;BME280;70842;50.744;7.114;2023-11-21T05:49:43;100760.97;;;12.25;70.20
81387;BME280;70842;50.744;7.114;2023-11-21T05:52:11;100768.44;;;12.11;70.28
81387;BME280;70842;50.744;7.114;2023-11-21T05:54:37;100762.47;;;12.18;69.65
81387;BME280;70842;50.744;7.114;2023-11-21T05:57:04;100759.50;;;11.91;70.96
81387;BME280;70842;50.744;7.114;2023-11-21T05:59:30;100769.03;;;11.94;70.89
81387;BME280;70842;50.744;7.114;2023-11-21T06:01:59;100767.66;;;11.99;70.46
81387;BME280;70842;50.744;7.114;2023-11-21T06:04:26;100765.41;;;11.74;71.26
81387;BME280;70842;50.744;7.114;2023-11-21T06:06:52;100781.50;;;12.03;70.83
81387;BME280;70842;50.744;7.114;2023-11-21T06:09:19;100775.06;;;11.96;70.38
81387;BME280;70842;50.744;7.114;2023-11-21T06:11:46;100781.78;;;11.79;71.37
81387;BME280;70842;50.744;7.114;2023-11-21T06:14:13;100788.41;;;11.85;71.07
81387;BME280;70842;50.744;7.114;2023-11-21T06:16:39;100793.94;;;11.82;71.38
81387;BME280;70842;50.744;7.114;2023-11-21T06:19:07;100790.97;;;11.75;71.26
81387;BME280;70842;50.744;7.114;2023-11-21T06:21:33;100795.75;;;11.49;72.28
81387;BME280;70842;50.744;7.114;2023-11-21T06:24:00;100789.31;;;11.31;72.78
81387;BME280;70842;50.744;7.114;2023-11-21T06:26:27;100804.13;;;11.77;71.90
81387;BME280;70842;50.744;7.114;2023-11-21T06:28:53;100800.25;;;12.01;71.31
81387;BME280;70842;50.744;7.114;2023-11-21T06:31:20;100805.69;;;12.00;70.73
81387;BME280;70842;50.744;7.114;2023-11-21T06:33:50;100813.47;;;11.92;71.01
81387;BME280;70842;50.744;7.114;2023-11-21T06:36:18;100808.06;;;11.50;72.47
81387;BME280;70842;50.744;7.114;2023-11-21T06:38:45;100811.63;;;11.92;71.52
81387;BME280;70842;50.744;7.114;2023-11-21T06:41:12;100821.91;;;11.86;71.66
81387;BME280;70842;50.744;7.114;2023-11-21T06:43:42;100812.22;;;11.96;70.45
81387;BME280;70842;50.744;7.114;2023-11-21T06:46:13;100830.81;;;11.32;72.80
81387;BME280;70842;50.744;7.114;2023-11-21T06:48:43;100829.69;;;10.70;74.86
81387;BME280;70842;50.744;7.114;2023-11-21T06:51:09;100826.66;;;10.52;76.07
81387;BME280;70842;50.744;7.114;2023-11-21T06:53:37;100828.69;;;11.15;73.83
81387;BME280;70842;50.744;7.114;2023-11-21T06:56:05;100830.78;;;10.67;74.50
81387;BME280;70842;50.744;7.114;2023-11-21T06:58:41;100842.66;;;11.06;73.90
81387;BME280;70842;50.744;7.114;2023-11-21T07:01:07;100844.84;;;11.01;74.08
81387;BME280;70842;50.744;7.114;2023-11-21T07:03:33;100858.97;;;10.68;75.53
81387;BME280;70842;50.744;7.114;2023-11-21T07:06:00;100858.59;;;10.51;76.04
81387;BME280;70842;50.744;7.114;2023-11-21T07:08:26;100859.34;;;10.75;75.02
81387;BME280;70842;50.744;7.114;2023-11-21T07:10:53;100865.78;;;11.26;73.54
81387;BME280;70842;50.744;7.114;2023-11-21T07:13:19;100861.09;;;11.61;72.00
81387;BME280;70842;50.744;7.114;2023-11-21T07:15:45;100870.88;;;11.61;71.76
81387;BME280;70842;50.744;7.114;2023-11-21T07:18:12;100868.59;;;11.56;72.17
81387;BME280;70842;50.744;7.114;2023-11-21T07:20:39;100876.56;;;11.45;72.41
81387;BME280;70842;50.744;7.114;2023-11-21T07:23:06;100880.22;;;11.44;72.38
81387;BME280;70842;50.744;7.114;2023-11-21T07:25:32;100884.00;;;11.62;71.37
81387;BME280;70842;50.744;7.114;2023-11-21T07:28:00;100884.78;;;11.53;71.97
81387;BME280;70842;50.744;7.114;2023-11-21T07:30:26;100896.13;;;11.55;71.67
81387;BME280;70842;50.744;7.114;2023-11-21T07:32:53;100911.69;;;11.38;72.46
81387;BME280;70842;50.744;7.114;2023-11-21T07:35:20;100907.19;;;11.60;71.40
81387;BME280;70842;50.744;7.114;2023-11-21T07:37:46;100911.41;;;11.74;71.35
81387;BME280;70842;50.744;7.114;2023-11-21T07:40:15;100927.47;;;11.50;72.10
81387;BME280;70842;50.744;7.114;2023-11-21T07:42:41;100931.84;;;11.40;72.58
81387;BME280;70842;50.744;7.114;2023-11-21T07:45:09;100928.72;;;11.24;72.76
81387;BME280;70842;50.744;7.114;2023-11-21T07:47:35;100933.56;;;11.30;72.79
81387;BME280;70842;50.744;7.114;2023-11-21T07:50:03;100944.03;;;11.43;72.10
81387;BME280;70842;50.744;7.114;2023-11-21T07:52:29;100937.75;;;11.33;72.26
81387;BME280;70842;50.744;7.114;2023-11-21T07:54:56;100946.03;;;11.61;71.52
81387;BME280;70842;50.744;7.114;2023-11-21T07:57:22;100951.84;;;11.44;71.83
81387;BME280;70842;50.744;7.114;2023-11-21T07:59:49;100947.63;;;11.31;72.40
81387;BME280;70842;50.744;7.114;2023-11-21T08:02:15;100939.19;;;11.70;71.31
81387;BME280;70842;50.744;7.114;2023-11-21T08:04:44;100936.88;;;11.77;70.97
81387;BME280;70842;50.744;7.114;2023-11-21T08:07:11;100937.44;;;11.80;70.56
81387;BME280;70842;50.744;7.114;2023-11-21T08:09:37;100938.56;;;11.98;70.27
81387;BME280;70842;50.744;7.114;2023-11-21T08:12:04;100936.81;;;11.88;70.94
81387;BME280;70842;50.744;7.114;2023-11-21T08:14:31;100944.31;;;11.83;71.11
81387;BME280;70842;50.744;7.114;2023-11-21T08:16:57;100945.19;;;11.61;72.00
81387;BME280;70842;50.744;7.114;2023-11-21T08:19:24;100939.22;;;11.26;72.59
81387;BME280;70842;50.744;7.114;2023-11-21T08:21:54;100959.84;;;11.11;73.87
81387;BME280;70842;50.744;7.114;2023-11-21T08:24:21;100955.00;;;11.38;72.86
81387;BME280;70842;50.744;7.114;2023-11-21T08:26:48;100957.44;;;11.30;73.24
81387;BME280;70842;50.744;7.114;2023-11-21T08:29:14;100969.78;;;11.63;72.17
81387;BME280;70842;50.744;7.114;2023-11-21T08:31:41;100969.47;;;11.67;72.41
81387;BME280;70842;50.744;7.114;2023-11-21T08:34:10;100959.03;;;11.87;70.47
81387;BME280;70842;50.744;7.114;2023-11-21T08:36:41;100965.25;;;12.08;70.50
81387;BME280;70842;50.744;7.114;2023-11-21T08:39:08;100982.34;;;12.46;69.50
81387;BME280;70842;50.744;7.114;2023-11-21T08:41:34;100978.47;;;12.19;70.15
81387;BME280;70842;50.744;7.114;2023-11-21T08:44:01;100978.03;;;12.03;70.43
81387;BME280;70842;50.744;7.114;2023-11-21T08:46:27;100990.66;;;11.56;71.83
81387;BME280;70842;50.744;7.114;2023-11-21T08:48:54;100987.69;;;12.15;70.59
81387;BME280;70842;50.744;7.114;2023-11-21T08:51:20;100990.69;;;11.79;71.19
81387;BME280;70842;50.744;7.114;2023-11-21T08:53:47;100992.19;;;11.92;71.07
81387;BME280;70842;50.744;7.114;2023-11-21T08:56:13;100997.34;;;12.05;70.93
81387;BME280;70842;50.744;7.114;2023-11-21T08:58:40;100996.41;;;12.06;70.32
81387;BME280;70842;50.744;7.114;2023-11-21T09:01:08;101006.69;;;11.99;70.67
81387;BME280;70842;50.744;7.114;2023-11-21T09:03:34;100991.88;;;12.17;70.25
81387;BME280;70842;50.744;7.114;2023-11-21T09:06:01;101002.22;;;12.31;69.90
81387;BME280;70842;50.744;7.114;2023-11-21T09:08:27;101003.09;;;12.73;68.24
81387;BME280;70842;50.744;7.114;2023-11-21T09:10:56;101004.59;;;12.03;70.49
81387;BME280;70842;50.744;7.114;2023-11-21T09:13:25;101019.59;;;11.93;70.96
81387;BME280;70842;50.744;7.114;2023-11-21T09:15:52;101026.22;;;11.98;71.25
81387;BME280;70842;50.744;7.114;2023-11-21T09:18:19;101026.22;;;12.41;69.63
81387;BME280;70842;50.744;7.114;2023-11-21T09:20:45;101021.50;;;12.13;70.61
81387;BME280;70842;50.744;7.114;2023-11-21T09:23:12;101038.19;;;11.93;71.39
81387;BME280;70842;50.744;7.114;2023-11-21T09:25:38;101034.09;;;11.77;71.91
81387;BME280;70842;50.744;7.114;2023-11-21T09:28:05;101040.34;;;11.99;70.79
81387;BME280;70842;50.744;7.114;2023-11-21T09:30:35;101040.75;;;11.61;71.39
81387;BME280;70842;50.744;7.114;2023-11-21T09:33:02;101037.97;;;11.96;71.66
81387;BME280;70842;50.744;7.114;2023-11-21T09:35:29;101039.69;;;11.74;71.72
81387;BME280;70842;50.744;7.114;2023-11-21T09:37:55;101050.03;;;11.89;71.13
81387;BME280;70842;50.744;7.114;2023-11-21T09:40:22;101054.34;;;12.01;71.37
81387;BME280;70842;50.744;7.114;2023-11-21T09:42:56;101055.47;;;11.87;71.75
81387;BME280;70842;50.744;7.114;2023-11-21T09:45:27;101060.63;;;12.11;71.22
81387;BME280;70842;50.744;7.114;2023-11-21T09:47:55;101067.66;;;11.79;71.55
81387;BME280;70842;50.744;7.114;2023-11-21T09:50:23;101066.69;;;11.91;71.18
81387;BME280;70842;50.744;7.114;2023-11-21T09:55:37;101070.78;;;11.95;71.01
81387;BME280;70842;50.744;7.114;2023-11-21T09:58:04;101065.72;;;11.92;71.33
81387;BME280;70842;50.744;7.114;2023-11-21T10:00:34;101054.41;;;11.79;71.46
81387;BME280;70842;50.744;7.114;2023-11-21T10:03:01;101068.16;;;11.72;72.22
81387;BME280;70842;50.744;7.114;2023-11-21T10:05:28;101067.44;;;11.70;72.41
81387;BME280;70842;50.744;7.114;2023-11-21T10:07:56;101073.50;;;12.15;71.55
81387;BME280;70842;50.744;7.114;2023-11-21T10:10:24;101065.69;;;12.03;71.56
81387;BME280;70842;50.744;7.114;2023-11-21T10:12:55;101061.06;;;12.27;71.14
81387;BME280;70842;50.744;7.114;2023-11-21T10:15:23;101063.84;;;12.25;70.93
81387;BME280;70842;50.744;7.114;2023-11-21T10:17:53;101066.69;;;12.44;70.62
81387;BME280;70842;50.744;7.114;2023-11-21T10:20:23;101063.00;;;12.25;70.80
81387;BME280;70842;50.744;7.114;2023-11-21T10:22:51;101063.06;;;12.34;70.34
81387;BME280;70842;50.744;7.114;2023-11-21T10:25:17;101069.91;;;12.16;70.82
81387;BME280;70842;50.744;7.114;2023-11-21T10:27:47;101074.34;;;12.27;70.98
81387;BME280;70842;50.744;7.114;2023-11-21T10:30:16;101077.91;;;12.37;70.27
81387;BME280;70842;50.744;7.114;2023-11-21T10:32:44;101063.91;;;12.67;69.67
81387;BME280;70842;50.744;7.114;2023-11-21T10:35:10;101070.16;;;12.77;69.24
81387;BME280;70842;50.744;7.114;2023-11-21T10:37:40;101075.69;;;12.85;68.95
81387;BME280;70842;50.744;7.114;2023-11-21T10:40:08;101079.44;;;12.82;69.24
81387;BME280;70842;50.744;7.114;2023-11-21T10:42:38;101074.63;;;13.08;68.13
81387;BME280;70842;50.744;7.114;2023-11-21T10:45:06;101070.94;;;12.88;68.62
81387;BME280;70842;50.744;7.114;2023-11-21T10:47:44;101083.63;;;12.64;69.69
81387;BME280;70842;50.744;7.114;2023-11-21T10:50:10;101085.91;;;12.69;69.05
81387;BME280;70842;50.744;7.114;2023-11-21T10:52:41;101079.53;;;12.60;69.63
81387;BME280;70842;50.744;7.114;2023-11-21T10:55:19;101077.84;;;12.59;69.30
81387;BME280;70842;50.744;7.114;2023-11-21T10:57:48;101072.19;;;12.84;68.88
81387;BME280;70842;50.744;7.114;2023-11-21T11:00:16;101077.84;;;12.59;69.60
81387;BME280;70842;50.744;7.114;2023-11-21T11:02:42;101086.28;;;12.64;69.98
81387;BME280;70842;50.744;7.114;2023-11-21T11:05:10;101090.84;;;12.73;69.56
81387;BME280;70842;50.744;7.114;2023-11-21T11:07:41;101091.69;;;12.94;68.68
81387;BME280;70842;50.744;7.114;2023-11-21T11:10:09;101082.00;;;12.73;69.59
81387;BME280;70842;50.744;7.114;2023-11-21T11:12:41;101082.28;;;12.90;68.33
81387;BME280;70842;50.744;7.114;2023-11-21T11:15:08;101093.09;;;13.09;67.99
81387;BME280;70842;50.744;7.114;2023-11-21T11:17:37;101091.53;;;13.27;68.20
81387;BME280;70842;50.744;7.114;2023-11-21T11:20:11;101087.22;;;13.36;67.44
81387;BME280;70842;50.744;7.114;2023-11-21T11:27:59;101094.00;;;12.67;69.58
81387;BME280;70842;50.744;7.114;2023-11-21T11:33:30;101107.63;;;12.53;69.20
81387;BME280;70842;50.744;7.114;2023-11-21T11:36:06;101092.81;;;12.60;69.67
81387;BME280;70842;50.744;7.114;2023-11-21T11:38:37;101097.91;;;12.63;69.33
81387;BME280;70842;50.744;7.114;2023-11-21T11:41:06;101106.00;;;12.19;71.04
81387;BME280;70842;50.744;7.114;2023-11-21T11:43:33;101101.13;;;12.24;70.54
81387;BME280;70842;50.744;7.114;2023-11-21T11:46:04;101108.88;;;12.27;70.54
81387;BME280;70842;50.744;7.114;2023-11-21T11:48:35;101113.16;;;12.50;70.60
81387;BME280;70842;50.744;7.114;2023-11-21T11:53:39;101119.78;;;12.13;71.06
81387;BME280;70842;50.744;7.114;2023-11-21T11:56:26;101119.50;;;12.27;70.92
81387;BME280;70842;50.744;7.114;2023-11-21T11:58:56;101102.75;;;12.58;69.93
81387;BME280;70842;50.744;7.114;2023-11-21T12:01:25;101114.34;;;12.57;70.18
81387;BME280;70842;50.744;7.114;2023-11-21T12:04:22;101112.44;;;12.48;70.37
81387;BME280;70842;50.744;7.114;2023-11-21T12:06:53;101114.00;;;12.50;70.32
81387;BME280;70842;50.744;7.114;2023-11-21T12:09:22;101111.34;;;12.50;69.90
81387;BME280;70842;50.744;7.114;2023-11-21T12:11:50;101118.63;;;12.48;70.18
81387;BME280;70842;50.744;7.114;2023-11-21T12:14:17;101111.19;;;12.63;69.99
81387;BME280;70842;50.744;7.114;2023-11-21T12:16:44;101117.28;;;12.75;69.59
81387;BME280;70842;50.744;7.114;2023-11-21T12:19:11;101111.94;;;12.54;69.72
81387;BME280;70842;50.744;7.114;2023-11-21T12:21:38;101126.59;;;12.48;70.48
81387;BME280;70842;50.744;7.114;2023-11-21T12:24:07;101114.88;;;12.51;70.38
81387;BME280;70842;50.744;7.114;2023-11-21T12:26:40;101125.75;;;12.37;70.48
81387;BME280;70842;50.744;7.114;2023-11-21T12:29:07;101129.28;;;12.69;69.77
81387;BME280;70842;50.744;7.114;2023-11-21T12:31:37;101124.38;;;12.85;69.02
81387;BME280;70842;50.744;7.114;2023-11-21T12:34:04;101133.94;;;12.45;69.85
81387;BME280;70842;50.744;7.114;2023-11-21T12:36:32;101126.63;;;12.26;70.65
81387;BME280;70842;50.744;7.114;2023-11-21T12:39:00;101139.97;;;12.47;70.16
81387;BME280;70842;50.744;7.114;2023-11-21T12:41:29;101140.94;;;12.57;69.79
81387;BME280;70842;50.744;7.114;2023-11-21T12:43:56;101134.56;;;12.80;68.63
81387;BME280;70842;50.744;7.114;2023-11-21T12:46:23;101138.81;;;12.83;68.77
81387;BME280;70842;50.744;7.114;2023-11-21T12:48:53;101143.53;;;12.68;68.53
81387;BME280;70842;50.744;7.114;2023-11-21T12:51:21;101152.13;;;12.72;68.70
81387;BME280;70842;50.744;7.114;2023-11-21T12:53:48;101144.41;;;12.57;68.92
81387;BME280;70842;50.744;7.114;2023-11-21T12:56:15;101139.97;;;12.58;69.23
81387;BME280;70842;50.744;7.114;2023-11-21T12:58:46;101151.25;;;12.82;68.69
81387;BME280;70842;50.744;7.114;2023-11-21T13:01:17;101139.97;;;12.58;69.20
81387;BME280;70842;50.744;7.114;2023-11-21T13:03:51;101147.16;;;12.78;68.49
81387;BME280;70842;50.744;7.114;2023-11-21T13:06:19;101147.75;;;12.82;68.32